sensor_id;sensor_type;location;lat;lon;timestamp;P1;durP1;ratioP1;P2;durP2;ratioP2
19653;SDS011;9975;48.046;7.804;2023-02-28T01:56:54;4.18;;;1.85;;
19653;SDS011;9975;48.046;7.804;2023-02-28T01:59:35;2.53;;;1.80;;
19653;SDS011;9975;48.046;7.804;2023-02-28T02:02:02;2.90;;;2.00;;
19653;SDS011;9975;48.046;7.804;2023-02-28T02:04:31;3.10;;;2.00;;
19653;SDS011;9975;48.046;7.804;2023-02-28T02:07:00;1.73;;;1.60;;
19653;SDS011;9975;48.046;7.804;2023-02-28T02:09:26;1.85;;;1.75;;
19653;SDS011;9975;48.046;7.804;2023-02-28T02:11:52;3.13;;;1.83;;
19653;SDS011;9975;48.046;7.804;2023-02-28T02:17:36;3.08;;;2.03;;
19653;SDS011;9975;48.046;7.804;2023-02-28T02:23:13;4.50;;;2.30;;
19653;SDS011;9975;48.046;7.804;2023-02-28T02:29:26;2.08;;;1.88;;
19653;SDS011;9975;48.046;7.804;2023-02-28T02:34:29;2.38;;;1.65;;
19653;SDS011;9975;48.046;7.804;2023-02-28T02:42:21;3.75;;;2.40;;
19653;SDS011;9975;48.046;7.804;2023-02-28T02:45:03;3.47;;;1.70;;
19653;SDS011;9975;48.046;7.804;2023-02-28T02:47:40;1.75;;;1.65;;
19653;SDS011;9975;48.046;7.804;2023-02-28T02:50:08;2.72;;;1.95;;
19653;SDS011;9975;48.046;7.804;2023-02-28T02:52:44;3.75;;;1.67;;
19653;SDS011;9975;48.046;7.804;2023-02-28T02:55:13;2.10;;;1.95;;
19653;SDS011;9975;48.046;7.804;2023-02-28T02:57:52;2.60;;;2.22;;
19653;SDS011;9975;48.046;7.804;2023-02-28T03:00:23;2.17;;;1.63;;
19653;SDS011;9975;48.046;7.804;2023-02-28T03:02:56;6.72;;;1.92;;
19653;SDS011;9975;48.046;7.804;2023-02-28T03:05:27;2.38;;;1.40;;
19653;SDS011;9975;48.046;7.804;2023-02-28T03:07:58;1.83;;;1.50;;
19653;SDS011;9975;48.046;7.804;2023-02-28T03:12:59;1.50;;;1.35;;
19653;SDS011;9975;48.046;7.804;2023-02-28T03:15:40;1.77;;;1.30;;
19653;SDS011;9975;48.046;7.804;2023-02-28T03:18:43;2.70;;;1.75;;
19653;SDS011;9975;48.046;7.804;2023-02-28T03:26:49;2.10;;;1.70;;
19653;SDS011;9975;48.046;7.804;2023-02-28T03:29:23;3.53;;;1.73;;
19653;SDS011;9975;48.046;7.804;2023-02-28T03:32:18;2.00;;;1.90;;
19653;SDS011;9975;48.046;7.804;2023-02-28T03:35:09;2.53;;;1.75;;
19653;SDS011;9975;48.046;7.804;2023-02-28T03:37:46;2.92;;;2.28;;
19653;SDS011;9975;48.046;7.804;2023-02-28T03:40:25;3.40;;;1.90;;
19653;SDS011;9975;48.046;7.804;2023-02-28T03:42:57;2.63;;;1.80;;
19653;SDS011;9975;48.046;7.804;2023-02-28T03:45:31;3.05;;;2.08;;
19653;SDS011;9975;48.046;7.804;2023-02-28T03:48:06;4.05;;;2.15;;
19653;SDS011;9975;48.046;7.804;2023-02-28T03:50:44;2.42;;;2.03;;
19653;SDS011;9975;48.046;7.804;2023-02-28T03:53:19;4.57;;;2.03;;
19653;SDS011;9975;48.046;7.804;2023-02-28T03:55:59;4.65;;;2.00;;
19653;SDS011;9975;48.046;7.804;2023-02-28T03:59:04;12.50;;;5.05;;
19653;SDS011;9975;48.046;7.804;2023-02-28T04:01:44;3.17;;;2.50;;
19653;SDS011;9975;48.046;7.804;2023-02-28T04:04:11;3.17;;;2.13;;
19653;SDS011;9975;48.046;7.804;2023-02-28T04:06:39;3.05;;;2.38;;
19653;SDS011;9975;48.046;7.804;2023-02-28T04:09:05;2.70;;;1.65;;
19653;SDS011;9975;48.046;7.804;2023-02-28T04:11:38;2.42;;;1.60;;
19653;SDS011;9975;48.046;7.804;2023-02-28T04:14:08;2.75;;;2.10;;
19653;SDS011;9975;48.046;7.804;2023-02-28T04:16:35;3.03;;;1.60;;
19653;SDS011;9975;48.046;7.804;2023-02-28T04:19:03;3.35;;;2.25;;
19653;SDS011;9975;48.046;7.804;2023-02-28T04:21:41;7.15;;;2.30;;
19653;SDS011;9975;48.046;7.804;2023-02-28T04:24:18;2.72;;;2.25;;
19653;SDS011;9975;48.046;7.804;2023-02-28T04:26:47;2.42;;;2.13;;
19653;SDS011;9975;48.046;7.804;2023-02-28T04:29:19;2.75;;;1.77;;
19653;SDS011;9975;48.046;7.804;2023-02-28T04:31:49;2.50;;;1.80;;
19653;SDS011;9975;48.046;7.804;2023-02-28T04:34:15;2.08;;;1.90;;
19653;SDS011;9975;48.046;7.804;2023-02-28T04:36:41;4.10;;;2.30;;
19653;SDS011;9975;48.046;7.804;2023-02-28T04:39:07;2.90;;;2.37;;
19653;SDS011;9975;48.046;7.804;2023-02-28T04:41:34;2.97;;;1.92;;
19653;SDS011;9975;48.046;7.804;2023-02-28T04:44:00;2.07;;;1.83;;
19653;SDS011;9975;48.046;7.804;2023-02-28T04:46:26;4.50;;;2.07;;
19653;SDS011;9975;48.046;7.804;2023-02-28T04:48:51;3.13;;;2.57;;
19653;SDS011;9975;48.046;7.804;2023-02-28T04:51:19;2.92;;;2.25;;
19653;SDS011;9975;48.046;7.804;2023-02-28T04:53:44;3.17;;;2.40;;
19653;SDS011;9975;48.046;7.804;2023-02-28T04:56:14;3.60;;;2.53;;
19653;SDS011;9975;48.046;7.804;2023-02-28T04:58:41;2.75;;;2.17;;
19653;SDS011;9975;48.046;7.804;2023-02-28T05:01:29;3.55;;;2.63;;
19653;SDS011;9975;48.046;7.804;2023-02-28T05:03:56;4.57;;;2.53;;
19653;SDS011;9975;48.046;7.804;2023-02-28T05:06:24;3.08;;;2.78;;
19653;SDS011;9975;48.046;7.804;2023-02-28T05:08:51;3.95;;;2.38;;
19653;SDS011;9975;48.046;7.804;2023-02-28T05:13:44;6.15;;;4.32;;
19653;SDS011;9975;48.046;7.804;2023-02-28T05:16:09;10.43;;;4.30;;
19653;SDS011;9975;48.046;7.804;2023-02-28T05:18:35;7.10;;;3.83;;
19653;SDS011;9975;48.046;7.804;2023-02-28T05:21:01;15.52;;;6.50;;
19653;SDS011;9975;48.046;7.804;2023-02-28T05:23:27;13.97;;;6.03;;
19653;SDS011;9975;48.046;7.804;2023-02-28T05:25:53;11.30;;;7.30;;
19653;SDS011;9975;48.046;7.804;2023-02-28T05:28:19;12.43;;;5.97;;
19653;SDS011;9975;48.046;7.804;2023-02-28T05:30:45;23.93;;;8.60;;
19653;SDS011;9975;48.046;7.804;2023-02-28T05:33:11;8.73;;;5.78;;
19653;SDS011;9975;48.046;7.804;2023-02-28T05:35:40;12.77;;;5.70;;
19653;SDS011;9975;48.046;7.804;2023-02-28T05:38:10;10.38;;;6.72;;
19653;SDS011;9975;48.046;7.804;2023-02-28T05:40:37;7.40;;;4.23;;
19653;SDS011;9975;48.046;7.804;2023-02-28T05:43:04;3.05;;;2.63;;
19653;SDS011;9975;48.046;7.804;2023-02-28T05:45:30;2.83;;;2.53;;
19653;SDS011;9975;48.046;7.804;2023-02-28T05:47:56;5.23;;;2.20;;
19653;SDS011;9975;48.046;7.804;2023-02-28T05:50:21;2.30;;;2.10;;
19653;SDS011;9975;48.046;7.804;2023-02-28T05:52:50;2.80;;;2.40;;
19653;SDS011;9975;48.046;7.804;2023-02-28T05:55:17;3.00;;;2.80;;
19653;SDS011;9975;48.046;7.804;2023-02-28T05:57:43;2.80;;;2.28;;
19653;SDS011;9975;48.046;7.804;2023-02-28T06:00:09;2.13;;;1.93;;
19653;SDS011;9975;48.046;7.804;2023-02-28T06:02:40;3.40;;;2.60;;
19653;SDS011;9975;48.046;7.804;2023-02-28T06:05:07;5.50;;;3.07;;
19653;SDS011;9975;48.046;7.804;2023-02-28T06:07:40;3.00;;;2.30;;
19653;SDS011;9975;48.046;7.804;2023-02-28T06:10:06;2.40;;;2.20;;
19653;SDS011;9975;48.046;7.804;2023-02-28T06:12:32;2.75;;;2.55;;
19653;SDS011;9975;48.046;7.804;2023-02-28T06:14:58;4.30;;;2.27;;
19653;SDS011;9975;48.046;7.804;2023-02-28T06:17:23;3.63;;;2.73;;
19653;SDS011;9975;48.046;7.804;2023-02-28T06:19:49;4.33;;;2.70;;
19653;SDS011;9975;48.046;7.804;2023-02-28T06:22:15;5.67;;;3.00;;
19653;SDS011;9975;48.046;7.804;2023-02-28T06:24:40;3.20;;;2.70;;
19653;SDS011;9975;48.046;7.804;2023-02-28T06:27:06;5.15;;;2.75;;
19653;SDS011;9975;48.046;7.804;2023-02-28T06:29:32;2.73;;;2.20;;
19653;SDS011;9975;48.046;7.804;2023-02-28T06:31:59;4.47;;;2.92;;
19653;SDS011;9975;48.046;7.804;2023-02-28T06:34:24;3.27;;;2.17;;
19653;SDS011;9975;48.046;7.804;2023-02-28T06:36:51;3.33;;;3.03;;
19653;SDS011;9975;48.046;7.804;2023-02-28T06:39:17;3.20;;;2.80;;
19653;SDS011;9975;48.046;7.804;2023-02-28T06:41:44;5.10;;;3.13;;
19653;SDS011;9975;48.046;7.804;2023-02-28T06:44:12;7.20;;;3.00;;
19653;SDS011;9975;48.046;7.804;2023-02-28T06:46:43;2.88;;;2.55;;
19653;SDS011;9975;48.046;7.804;2023-02-28T06:49:09;3.88;;;2.40;;
19653;SDS011;9975;48.046;7.804;2023-02-28T06:51:36;2.90;;;2.58;;
19653;SDS011;9975;48.046;7.804;2023-02-28T06:54:04;9.73;;;2.90;;
19653;SDS011;9975;48.046;7.804;2023-02-28T06:56:30;5.53;;;2.83;;
19653;SDS011;9975;48.046;7.804;2023-02-28T06:58:56;4.43;;;3.17;;
19653;SDS011;9975;48.046;7.804;2023-02-28T07:01:21;4.60;;;3.23;;
19653;SDS011;9975;48.046;7.804;2023-02-28T07:03:49;3.38;;;2.40;;
19653;SDS011;9975;48.046;7.804;2023-02-28T07:06:17;6.13;;;2.85;;
19653;SDS011;9975;48.046;7.804;2023-02-28T07:08:47;3.28;;;2.80;;
19653;SDS011;9975;48.046;7.804;2023-02-28T07:11:14;7.10;;;3.10;;
19653;SDS011;9975;48.046;7.804;2023-02-28T07:13:39;4.73;;;2.80;;
19653;SDS011;9975;48.046;7.804;2023-02-28T07:16:05;5.60;;;2.90;;
19653;SDS011;9975;48.046;7.804;2023-02-28T07:21:55;3.58;;;2.60;;
19653;SDS011;9975;48.046;7.804;2023-02-28T07:24:21;2.90;;;2.50;;
19653;SDS011;9975;48.046;7.804;2023-02-28T07:26:50;4.25;;;3.33;;
19653;SDS011;9975;48.046;7.804;2023-02-28T07:29:16;3.73;;;2.70;;
19653;SDS011;9975;48.046;7.804;2023-02-28T07:31:42;5.43;;;3.70;;
19653;SDS011;9975;48.046;7.804;2023-02-28T07:34:08;5.68;;;3.40;;
19653;SDS011;9975;48.046;7.804;2023-02-28T07:36:34;5.47;;;3.07;;
19653;SDS011;9975;48.046;7.804;2023-02-28T07:38:59;5.50;;;3.50;;
19653;SDS011;9975;48.046;7.804;2023-02-28T07:41:25;5.90;;;3.77;;
19653;SDS011;9975;48.046;7.804;2023-02-28T07:43:55;4.40;;;3.10;;
19653;SDS011;9975;48.046;7.804;2023-02-28T07:46:24;6.95;;;3.70;;
19653;SDS011;9975;48.046;7.804;2023-02-28T07:48:50;4.25;;;2.97;;
19653;SDS011;9975;48.046;7.804;2023-02-28T07:51:16;3.97;;;3.20;;
19653;SDS011;9975;48.046;7.804;2023-02-28T07:53:42;5.33;;;3.50;;
19653;SDS011;9975;48.046;7.804;2023-02-28T07:56:07;4.67;;;3.40;;
19653;SDS011;9975;48.046;7.804;2023-02-28T07:58:33;4.00;;;2.70;;
19653;SDS011;9975;48.046;7.804;2023-02-28T08:01:09;3.37;;;3.07;;
19653;SDS011;9975;48.046;7.804;2023-02-28T08:03:36;9.65;;;4.50;;
19653;SDS011;9975;48.046;7.804;2023-02-28T08:06:03;7.20;;;3.55;;
19653;SDS011;9975;48.046;7.804;2023-02-28T08:08:30;5.65;;;3.58;;
19653;SDS011;9975;48.046;7.804;2023-02-28T08:10:57;5.68;;;2.65;;
19653;SDS011;9975;48.046;7.804;2023-02-28T08:13:25;4.97;;;3.72;;
19653;SDS011;9975;48.046;7.804;2023-02-28T08:15:52;3.53;;;2.90;;
19653;SDS011;9975;48.046;7.804;2023-02-28T08:18:19;5.05;;;3.35;;
19653;SDS011;9975;48.046;7.804;2023-02-28T08:20:44;3.97;;;2.80;;
19653;SDS011;9975;48.046;7.804;2023-02-28T08:23:10;4.07;;;2.60;;
19653;SDS011;9975;48.046;7.804;2023-02-28T08:25:35;6.23;;;4.37;;
19653;SDS011;9975;48.046;7.804;2023-02-28T08:28:01;5.87;;;3.93;;
19653;SDS011;9975;48.046;7.804;2023-02-28T08:30:27;7.10;;;4.10;;
19653;SDS011;9975;48.046;7.804;2023-02-28T08:32:52;4.73;;;3.27;;
19653;SDS011;9975;48.046;7.804;2023-02-28T08:35:19;6.10;;;3.92;;
19653;SDS011;9975;48.046;7.804;2023-02-28T08:37:47;6.30;;;3.50;;
19653;SDS011;9975;48.046;7.804;2023-02-28T08:40:15;3.90;;;2.90;;
19653;SDS011;9975;48.046;7.804;2023-02-28T08:42:43;7.00;;;4.00;;
19653;SDS011;9975;48.046;7.804;2023-02-28T08:45:09;3.90;;;3.15;;
19653;SDS011;9975;48.046;7.804;2023-02-28T08:47:36;6.43;;;4.07;;
19653;SDS011;9975;48.046;7.804;2023-02-28T08:50:02;4.77;;;3.70;;
19653;SDS011;9975;48.046;7.804;2023-02-28T08:52:28;3.92;;;3.20;;
19653;SDS011;9975;48.046;7.804;2023-02-28T08:54:54;4.17;;;3.07;;
19653;SDS011;9975;48.046;7.804;2023-02-28T08:57:19;3.27;;;2.97;;
19653;SDS011;9975;48.046;7.804;2023-02-28T08:59:45;7.20;;;3.83;;
19653;SDS011;9975;48.046;7.804;2023-02-28T09:02:14;5.50;;;3.87;;
19653;SDS011;9975;48.046;7.804;2023-02-28T09:04:41;4.47;;;3.78;;
19653;SDS011;9975;48.046;7.804;2023-02-28T09:07:10;9.40;;;3.88;;
19653;SDS011;9975;48.046;7.804;2023-02-28T09:09:36;5.20;;;4.03;;
19653;SDS011;9975;48.046;7.804;2023-02-28T09:12:02;5.97;;;4.20;;
19653;SDS011;9975;48.046;7.804;2023-02-28T09:14:34;4.40;;;3.83;;
19653;SDS011;9975;48.046;7.804;2023-02-28T09:17:00;4.25;;;3.85;;
19653;SDS011;9975;48.046;7.804;2023-02-28T09:19:25;4.30;;;3.20;;
19653;SDS011;9975;48.046;7.804;2023-02-28T09:21:51;6.60;;;3.90;;
19653;SDS011;9975;48.046;7.804;2023-02-28T09:24:17;4.65;;;3.63;;
19653;SDS011;9975;48.046;7.804;2023-02-28T09:26:44;6.43;;;3.53;;
19653;SDS011;9975;48.046;7.804;2023-02-28T09:29:10;5.90;;;3.70;;
19653;SDS011;9975;48.046;7.804;2023-02-28T09:31:36;6.57;;;4.40;;
19653;SDS011;9975;48.046;7.804;2023-02-28T09:34:01;4.60;;;3.80;;
19653;SDS011;9975;48.046;7.804;2023-02-28T09:36:28;4.82;;;3.90;;
19653;SDS011;9975;48.046;7.804;2023-02-28T09:38:54;3.90;;;3.50;;
19653;SDS011;9975;48.046;7.804;2023-02-28T09:41:23;4.05;;;3.00;;
19653;SDS011;9975;48.046;7.804;2023-02-28T09:43:56;4.05;;;3.40;;
19653;SDS011;9975;48.046;7.804;2023-02-28T09:46:32;5.22;;;4.57;;
19653;SDS011;9975;48.046;7.804;2023-02-28T09:49:04;7.45;;;4.97;;
19653;SDS011;9975;48.046;7.804;2023-02-28T09:54:13;5.35;;;4.50;;
19653;SDS011;9975;48.046;7.804;2023-02-28T09:56:44;9.70;;;4.70;;
19653;SDS011;9975;48.046;7.804;2023-02-28T09:59:41;7.18;;;4.80;;
19653;SDS011;9975;48.046;7.804;2023-02-28T10:05:52;6.20;;;4.40;;
19653;SDS011;9975;48.046;7.804;2023-02-28T10:11:16;6.30;;;4.43;;
19653;SDS011;9975;48.046;7.804;2023-02-28T10:13:48;4.90;;;4.30;;
19653;SDS011;9975;48.046;7.804;2023-02-28T10:19:06;5.65;;;3.90;;
19653;SDS011;9975;48.046;7.804;2023-02-28T10:24:30;7.00;;;4.93;;
19653;SDS011;9975;48.046;7.804;2023-02-28T10:27:01;9.73;;;4.35;;
19653;SDS011;9975;48.046;7.804;2023-02-28T10:29:45;12.07;;;5.40;;
19653;SDS011;9975;48.046;7.804;2023-02-28T10:32:16;7.40;;;4.80;;
19653;SDS011;9975;48.046;7.804;2023-02-28T10:34:43;7.70;;;4.40;;
19653;SDS011;9975;48.046;7.804;2023-02-28T10:37:10;8.52;;;5.28;;
19653;SDS011;9975;48.046;7.804;2023-02-28T10:39:45;8.88;;;4.78;;
19653;SDS011;9975;48.046;7.804;2023-02-28T10:42:25;7.82;;;4.88;;
19653;SDS011;9975;48.046;7.804;2023-02-28T10:45:14;6.40;;;4.40;;
19653;SDS011;9975;48.046;7.804;2023-02-28T10:50:50;7.30;;;5.18;;
19653;SDS011;9975;48.046;7.804;2023-02-28T11:01:22;6.13;;;3.83;;
19653;SDS011;9975;48.046;7.804;2023-02-28T11:03:49;9.40;;;4.50;;
19653;SDS011;9975;48.046;7.804;2023-02-28T11:06:18;6.28;;;4.30;;
19653;SDS011;9975;48.046;7.804;2023-02-28T11:08:45;7.93;;;4.95;;
19653;SDS011;9975;48.046;7.804;2023-02-28T11:11:17;6.00;;;5.00;;
19653;SDS011;9975;48.046;7.804;2023-02-28T11:13:44;7.70;;;4.57;;
19653;SDS011;9975;48.046;7.804;2023-02-28T11:16:11;8.68;;;4.20;;
19653;SDS011;9975;48.046;7.804;2023-02-28T11:21:04;5.33;;;4.20;;
19653;SDS011;9975;48.046;7.804;2023-02-28T11:23:30;5.43;;;3.78;;
19653;SDS011;9975;48.046;7.804;2023-02-28T11:26:01;6.90;;;4.30;;
19653;SDS011;9975;48.046;7.804;2023-02-28T11:33:27;6.55;;;4.38;;
19653;SDS011;9975;48.046;7.804;2023-02-28T11:36:04;5.72;;;4.25;;
19653;SDS011;9975;48.046;7.804;2023-02-28T11:38:36;7.30;;;4.15;;
19653;SDS011;9975;48.046;7.804;2023-02-28T11:41:27;7.68;;;4.53;;
19653;SDS011;9975;48.046;7.804;2023-02-28T11:45:04;5.03;;;4.25;;
19653;SDS011;9975;48.046;7.804;2023-02-28T11:47:15;6.65;;;5.15;;
19653;SDS011;9975;48.046;7.804;2023-02-28T11:58:24;6.38;;;4.60;;
19653;SDS011;9975;48.046;7.804;2023-02-28T12:04:12;8.98;;;6.30;;
19653;SDS011;9975;48.046;7.804;2023-02-28T12:07:01;9.35;;;4.80;;
19653;SDS011;9975;48.046;7.804;2023-02-28T12:17:56;5.47;;;4.20;;
19653;SDS011;9975;48.046;7.804;2023-02-28T12:20:43;7.30;;;6.37;;
19653;SDS011;9975;48.046;7.804;2023-02-28T12:28:34;6.85;;;4.95;;
19653;SDS011;9975;48.046;7.804;2023-02-28T12:33:54;6.90;;;5.38;;
19653;SDS011;9975;48.046;7.804;2023-02-28T12:36:25;7.97;;;5.23;;
19653;SDS011;9975;48.046;7.804;2023-02-28T12:38:55;6.83;;;5.40;;
19653;SDS011;9975;48.046;7.804;2023-02-28T12:44:23;7.90;;;4.63;;
19653;SDS011;9975;48.046;7.804;2023-02-28T12:46:54;7.83;;;5.33;;
19653;SDS011;9975;48.046;7.804;2023-02-28T12:49:34;6.97;;;5.30;;
19653;SDS011;9975;48.046;7.804;2023-02-28T12:52:17;6.70;;;5.20;;
19653;SDS011;9975;48.046;7.804;2023-02-28T12:54:55;7.57;;;5.60;;
19653;SDS011;9975;48.046;7.804;2023-02-28T12:59:59;7.70;;;5.10;;
19653;SDS011;9975;48.046;7.804;2023-02-28T13:11:02;10.67;;;5.13;;
19653;SDS011;9975;48.046;7.804;2023-02-28T13:13:29;7.60;;;5.23;;
19653;SDS011;9975;48.046;7.804;2023-02-28T13:18:42;7.10;;;4.87;;
19653;SDS011;9975;48.046;7.804;2023-02-28T13:21:22;12.80;;;5.77;;
19653;SDS011;9975;48.046;7.804;2023-02-28T13:29:36;11.43;;;4.90;;
19653;SDS011;9975;48.046;7.804;2023-02-28T13:34:47;7.60;;;5.63;;
19653;SDS011;9975;48.046;7.804;2023-02-28T13:39:53;9.70;;;5.90;;
19653;SDS011;9975;48.046;7.804;2023-02-28T13:47:58;9.67;;;5.53;;
19653;SDS011;9975;48.046;7.804;2023-02-28T13:50:30;7.10;;;5.30;;
19653;SDS011;9975;48.046;7.804;2023-02-28T13:58:53;8.03;;;5.37;;
19653;SDS011;9975;48.046;7.804;2023-02-28T14:07:33;11.10;;;7.80;;
19653;SDS011;9975;48.046;7.804;2023-02-28T14:10:23;10.40;;;7.00;;
19653;SDS011;9975;48.046;7.804;2023-02-28T14:15:38;10.00;;;6.53;;
19653;SDS011;9975;48.046;7.804;2023-02-28T14:18:22;7.10;;;5.73;;
19653;SDS011;9975;48.046;7.804;2023-02-28T14:20:49;7.77;;;6.47;;
19653;SDS011;9975;48.046;7.804;2023-02-28T14:23:31;11.23;;;6.03;;
19653;SDS011;9975;48.046;7.804;2023-02-28T14:26:36;9.77;;;5.90;;
19653;SDS011;9975;48.046;7.804;2023-02-28T14:32:02;9.43;;;6.67;;
19653;SDS011;9975;48.046;7.804;2023-02-28T14:34:48;8.73;;;6.43;;
19653;SDS011;9975;48.046;7.804;2023-02-28T14:37:28;8.77;;;6.40;;
19653;SDS011;9975;48.046;7.804;2023-02-28T14:39:57;5.87;;;4.77;;
19653;SDS011;9975;48.046;7.804;2023-02-28T14:44:56;7.00;;;5.30;;
19653;SDS011;9975;48.046;7.804;2023-02-28T14:47:22;10.63;;;6.70;;
19653;SDS011;9975;48.046;7.804;2023-02-28T14:49:50;9.20;;;7.10;;
19653;SDS011;9975;48.046;7.804;2023-02-28T14:52:23;8.20;;;6.40;;
19653;SDS011;9975;48.046;7.804;2023-02-28T14:54:53;7.20;;;5.40;;
19653;SDS011;9975;48.046;7.804;2023-02-28T14:57:25;7.60;;;5.70;;
19653;SDS011;9975;48.046;7.804;2023-02-28T15:02:42;7.97;;;5.60;;
19653;SDS011;9975;48.046;7.804;2023-02-28T15:07:43;8.60;;;5.27;;
19653;SDS011;9975;48.046;7.804;2023-02-28T15:10:21;9.73;;;7.07;;
19653;SDS011;9975;48.046;7.804;2023-02-28T15:12:54;7.67;;;6.30;;
19653;SDS011;9975;48.046;7.804;2023-02-28T15:15:47;7.23;;;6.20;;
19653;SDS011;9975;48.046;7.804;2023-02-28T15:18:15;9.07;;;5.60;;
19653;SDS011;9975;48.046;7.804;2023-02-28T15:20:46;6.93;;;5.63;;
19653;SDS011;9975;48.046;7.804;2023-02-28T15:23:12;6.23;;;5.63;;
19653;SDS011;9975;48.046;7.804;2023-02-28T15:25:39;8.00;;;6.13;;
19653;SDS011;9975;48.046;7.804;2023-02-28T15:28:09;8.07;;;6.20;;
19653;SDS011;9975;48.046;7.804;2023-02-28T15:30:49;8.43;;;6.00;;
19653;SDS011;9975;48.046;7.804;2023-02-28T15:33:26;8.40;;;5.77;;
19653;SDS011;9975;48.046;7.804;2023-02-28T15:36:06;9.67;;;6.10;;
19653;SDS011;9975;48.046;7.804;2023-02-28T15:38:38;10.77;;;6.60;;
19653;SDS011;9975;48.046;7.804;2023-02-28T15:49:23;9.07;;;6.10;;
19653;SDS011;9975;48.046;7.804;2023-02-28T15:51:50;8.77;;;5.90;;
19653;SDS011;9975;48.046;7.804;2023-02-28T15:54:24;12.37;;;6.93;;
19653;SDS011;9975;48.046;7.804;2023-02-28T15:56:55;20.63;;;7.70;;
19653;SDS011;9975;48.046;7.804;2023-02-28T15:59:23;9.93;;;5.67;;
19653;SDS011;9975;48.046;7.804;2023-02-28T16:04:35;10.30;;;6.57;;
19653;SDS011;9975;48.046;7.804;2023-02-28T16:07:03;7.57;;;5.63;;
19653;SDS011;9975;48.046;7.804;2023-02-28T16:09:30;10.40;;;6.30;;
19653;SDS011;9975;48.046;7.804;2023-02-28T16:12:00;12.13;;;6.80;;
19653;SDS011;9975;48.046;7.804;2023-02-28T16:14:28;9.27;;;6.93;;
19653;SDS011;9975;48.046;7.804;2023-02-28T16:17:08;10.50;;;6.93;;
19653;SDS011;9975;48.046;7.804;2023-02-28T16:19:45;10.77;;;7.00;;
19653;SDS011;9975;48.046;7.804;2023-02-28T16:22:11;8.93;;;6.00;;
19653;SDS011;9975;48.046;7.804;2023-02-28T16:24:37;9.63;;;6.07;;
19653;SDS011;9975;48.046;7.804;2023-02-28T16:27:03;8.97;;;6.73;;
19653;SDS011;9975;48.046;7.804;2023-02-28T16:29:31;6.80;;;5.47;;
19653;SDS011;9975;48.046;7.804;2023-02-28T16:31:59;8.30;;;6.00;;
19653;SDS011;9975;48.046;7.804;2023-02-28T16:34:25;8.47;;;6.30;;
19653;SDS011;9975;48.046;7.804;2023-02-28T16:36:52;7.00;;;6.30;;
19653;SDS011;9975;48.046;7.804;2023-02-28T16:39:18;11.47;;;7.20;;
19653;SDS011;9975;48.046;7.804;2023-02-28T16:41:45;8.50;;;6.10;;
19653;SDS011;9975;48.046;7.804;2023-02-28T16:44:32;9.90;;;7.77;;
19653;SDS011;9975;48.046;7.804;2023-02-28T16:46:59;13.07;;;7.93;;
19653;SDS011;9975;48.046;7.804;2023-02-28T16:49:26;8.07;;;6.80;;
19653;SDS011;9975;48.046;7.804;2023-02-28T16:51:52;8.57;;;7.00;;
19653;SDS011;9975;48.046;7.804;2023-02-28T16:54:18;10.00;;;7.00;;
19653;SDS011;9975;48.046;7.804;2023-02-28T16:56:44;9.30;;;7.30;;
19653;SDS011;9975;48.046;7.804;2023-02-28T16:59:12;9.73;;;8.40;;
19653;SDS011;9975;48.046;7.804;2023-02-28T17:01:38;14.50;;;8.77;;
19653;SDS011;9975;48.046;7.804;2023-02-28T17:04:04;13.63;;;7.40;;
19653;SDS011;9975;48.046;7.804;2023-02-28T17:06:33;18.20;;;10.82;;
19653;SDS011;9975;48.046;7.804;2023-02-28T17:08:59;22.47;;;12.10;;
19653;SDS011;9975;48.046;7.804;2023-02-28T17:11:25;19.60;;;12.30;;
19653;SDS011;9975;48.046;7.804;2023-02-28T17:13:51;17.73;;;12.40;;
19653;SDS011;9975;48.046;7.804;2023-02-28T17:16:26;35.88;;;18.00;;
19653;SDS011;9975;48.046;7.804;2023-02-28T17:18:59;45.88;;;20.27;;
19653;SDS011;9975;48.046;7.804;2023-02-28T17:21:26;32.92;;;16.95;;
19653;SDS011;9975;48.046;7.804;2023-02-28T17:23:52;18.27;;;11.63;;
19653;SDS011;9975;48.046;7.804;2023-02-28T17:26:19;13.87;;;9.93;;
19653;SDS011;9975;48.046;7.804;2023-02-28T17:28:45;13.52;;;7.05;;
19653;SDS011;9975;48.046;7.804;2023-02-28T17:33:57;9.25;;;7.90;;
19653;SDS011;9975;48.046;7.804;2023-02-28T17:36:24;12.20;;;8.07;;
19653;SDS011;9975;48.046;7.804;2023-02-28T17:38:51;11.60;;;7.70;;
19653;SDS011;9975;48.046;7.804;2023-02-28T17:41:19;11.70;;;8.20;;
19653;SDS011;9975;48.046;7.804;2023-02-28T17:43:45;12.30;;;8.30;;
19653;SDS011;9975;48.046;7.804;2023-02-28T17:46:14;10.90;;;8.07;;
19653;SDS011;9975;48.046;7.804;2023-02-28T17:48:43;12.65;;;6.95;;
19653;SDS011;9975;48.046;7.804;2023-02-28T17:51:11;12.70;;;7.60;;
19653;SDS011;9975;48.046;7.804;2023-02-28T17:53:41;15.40;;;8.82;;
19653;SDS011;9975;48.046;7.804;2023-02-28T17:56:11;15.75;;;9.45;;
19653;SDS011;9975;48.046;7.804;2023-02-28T17:58:38;20.45;;;11.80;;
19653;SDS011;9975;48.046;7.804;2023-02-28T18:01:03;15.13;;;10.57;;
19653;SDS011;9975;48.046;7.804;2023-02-28T18:03:38;19.10;;;13.20;;
19653;SDS011;9975;48.046;7.804;2023-02-28T18:06:04;20.13;;;12.30;;
19653;SDS011;9975;48.046;7.804;2023-02-28T18:08:30;29.65;;;13.10;;
19653;SDS011;9975;48.046;7.804;2023-02-28T18:10:59;21.98;;;12.73;;
19653;SDS011;9975;48.046;7.804;2023-02-28T18:13:25;21.07;;;11.33;;
19653;SDS011;9975;48.046;7.804;2023-02-28T18:15:52;24.70;;;12.63;;
19653;SDS011;9975;48.046;7.804;2023-02-28T18:18:18;17.20;;;10.15;;
19653;SDS011;9975;48.046;7.804;2023-02-28T18:20:44;17.37;;;10.03;;
19653;SDS011;9975;48.046;7.804;2023-02-28T18:23:10;19.90;;;9.73;;
19653;SDS011;9975;48.046;7.804;2023-02-28T18:25:35;30.00;;;12.10;;
19653;SDS011;9975;48.046;7.804;2023-02-28T18:28:02;46.75;;;18.95;;
19653;SDS011;9975;48.046;7.804;2023-02-28T18:30:30;36.17;;;15.63;;
19653;SDS011;9975;48.046;7.804;2023-02-28T18:32:57;34.50;;;15.73;;
19653;SDS011;9975;48.046;7.804;2023-02-28T18:35:24;35.83;;;16.48;;
19653;SDS011;9975;48.046;7.804;2023-02-28T18:37:59;31.75;;;13.43;;
19653;SDS011;9975;48.046;7.804;2023-02-28T18:40:50;26.08;;;10.65;;
19653;SDS011;9975;48.046;7.804;2023-02-28T18:43:21;21.25;;;11.85;;
19653;SDS011;9975;48.046;7.804;2023-02-28T18:45:47;12.63;;;7.65;;
19653;SDS011;9975;48.046;7.804;2023-02-28T18:48:13;9.83;;;7.07;;
19653;SDS011;9975;48.046;7.804;2023-02-28T18:50:39;12.83;;;7.50;;
19653;SDS011;9975;48.046;7.804;2023-02-28T18:53:06;11.98;;;8.63;;
19653;SDS011;9975;48.046;7.804;2023-02-28T18:55:31;15.80;;;7.80;;
19653;SDS011;9975;48.046;7.804;2023-02-28T18:57:58;14.05;;;7.47;;
19653;SDS011;9975;48.046;7.804;2023-02-28T19:00:24;12.32;;;7.63;;
19653;SDS011;9975;48.046;7.804;2023-02-28T19:02:50;16.03;;;8.00;;
19653;SDS011;9975;48.046;7.804;2023-02-28T19:05:17;12.80;;;6.75;;
19653;SDS011;9975;48.046;7.804;2023-02-28T19:07:43;14.60;;;8.80;;
19653;SDS011;9975;48.046;7.804;2023-02-28T19:10:09;14.80;;;7.35;;
19653;SDS011;9975;48.046;7.804;2023-02-28T19:12:36;13.80;;;7.75;;
19653;SDS011;9975;48.046;7.804;2023-02-28T19:15:05;13.60;;;7.95;;
19653;SDS011;9975;48.046;7.804;2023-02-28T19:17:33;20.23;;;10.32;;
19653;SDS011;9975;48.046;7.804;2023-02-28T19:20:00;18.38;;;10.00;;
19653;SDS011;9975;48.046;7.804;2023-02-28T19:22:27;17.35;;;8.90;;
19653;SDS011;9975;48.046;7.804;2023-02-28T19:24:52;12.47;;;8.07;;
19653;SDS011;9975;48.046;7.804;2023-02-28T19:27:18;12.07;;;7.60;;
19653;SDS011;9975;48.046;7.804;2023-02-28T19:29:47;10.60;;;6.63;;
19653;SDS011;9975;48.046;7.804;2023-02-28T19:32:14;12.43;;;5.97;;
19653;SDS011;9975;48.046;7.804;2023-02-28T19:34:40;11.00;;;7.03;;
19653;SDS011;9975;48.046;7.804;2023-02-28T19:37:08;14.68;;;7.43;;
19653;SDS011;9975;48.046;7.804;2023-02-28T19:39:34;10.77;;;7.07;;
19653;SDS011;9975;48.046;7.804;2023-02-28T19:42:07;12.35;;;7.07;;
19653;SDS011;9975;48.046;7.804;2023-02-28T19:44:33;14.57;;;7.45;;
19653;SDS011;9975;48.046;7.804;2023-02-28T19:46:59;17.03;;;10.63;;
19653;SDS011;9975;48.046;7.804;2023-02-28T19:49:25;12.48;;;7.10;;
19653;SDS011;9975;48.046;7.804;2023-02-28T19:51:50;18.90;;;8.20;;
19653;SDS011;9975;48.046;7.804;2023-02-28T19:54:16;13.70;;;7.82;;
19653;SDS011;9975;48.046;7.804;2023-02-28T19:56:42;12.40;;;7.13;;